sensor_id;sensor_type;location;lat;lon;timestamp;P1;durP1;ratioP1;P2;durP2;ratioP2
20861;SDS011;10591;52.532;13.348;2022-11-20T00:02:04;16.10;;;10.57;;
20861;SDS011;10591;52.532;13.348;2022-11-20T00:04:37;16.53;;;11.57;;
20861;SDS011;10591;52.532;13.348;2022-11-20T00:07:10;15.30;;;10.67;;
20861;SDS011;10591;52.532;13.348;2022-11-20T00:09:42;19.20;;;11.23;;
20861;SDS011;10591;52.532;13.348;2022-11-20T00:12:13;16.23;;;11.13;;
20861;SDS011;10591;52.532;13.348;2022-11-20T00:14:44;16.67;;;10.67;;
20861;SDS011;10591;52.532;13.348;2022-11-20T00:17:18;18.47;;;11.70;;
20861;SDS011;10591;52.532;13.348;2022-11-20T00:19:49;16.43;;;10.70;;
20861;SDS011;10591;52.532;13.348;2022-11-20T00:22:24;16.20;;;10.43;;
20861;SDS011;10591;52.532;13.348;2022-11-20T00:24:58;16.63;;;11.37;;
20861;SDS011;10591;52.532;13.348;2022-11-20T00:27:31;14.67;;;10.17;;
20861;SDS011;10591;52.532;13.348;2022-11-20T00:30:01;15.37;;;10.57;;
20861;SDS011;10591;52.532;13.348;2022-11-20T00:32:36;16.70;;;10.00;;
20861;SDS011;10591;52.532;13.348;2022-11-20T00:35:08;18.00;;;11.10;;
20861;SDS011;10591;52.532;13.348;2022-11-20T00:37:41;16.50;;;10.30;;
20861;SDS011;10591;52.532;13.348;2022-11-20T00:40:13;16.60;;;10.43;;
20861;SDS011;10591;52.532;13.348;2022-11-20T00:42:46;17.57;;;10.87;;
20861;SDS011;10591;52.532;13.348;2022-11-20T00:45:18;16.97;;;10.17;;
20861;SDS011;10591;52.532;13.348;2022-11-20T00:47:50;14.80;;;9.70;;
20861;SDS011;10591;52.532;13.348;2022-11-20T00:50:22;15.40;;;10.57;;
20861;SDS011;10591;52.532;13.348;2022-11-20T00:52:55;17.03;;;10.33;;
20861;SDS011;10591;52.532;13.348;2022-11-20T00:55:26;18.20;;;10.27;;
20861;SDS011;10591;52.532;13.348;2022-11-20T00:58:00;14.20;;;10.07;;
20861;SDS011;10591;52.532;13.348;2022-11-20T01:00:32;15.17;;;10.13;;
20861;SDS011;10591;52.532;13.348;2022-11-20T01:03:07;15.33;;;9.80;;
20861;SDS011;10591;52.532;13.348;2022-11-20T01:05:39;15.57;;;10.40;;
20861;SDS011;10591;52.532;13.348;2022-11-20T01:08:10;16.70;;;10.60;;
20861;SDS011;10591;52.532;13.348;2022-11-20T01:10:42;16.17;;;10.87;;
20861;SDS011;10591;52.532;13.348;2022-11-20T01:13:13;17.03;;;11.17;;
20861;SDS011;10591;52.532;13.348;2022-11-20T01:16:04;15.07;;;10.40;;
20861;SDS011;10591;52.532;13.348;2022-11-20T01:18:41;17.57;;;10.97;;
20861;SDS011;10591;52.532;13.348;2022-11-20T01:21:15;16.23;;;10.17;;
20861;SDS011;10591;52.532;13.348;2022-11-20T01:23:51;16.50;;;10.47;;
20861;SDS011;10591;52.532;13.348;2022-11-20T01:26:24;15.30;;;10.80;;
20861;SDS011;10591;52.532;13.348;2022-11-20T01:28:58;17.77;;;10.70;;
20861;SDS011;10591;52.532;13.348;2022-11-20T01:31:31;16.20;;;10.83;;
20861;SDS011;10591;52.532;13.348;2022-11-20T01:34:10;18.50;;;10.77;;
20861;SDS011;10591;52.532;13.348;2022-11-20T01:36:42;17.77;;;10.67;;
20861;SDS011;10591;52.532;13.348;2022-11-20T01:39:20;15.90;;;10.90;;
20861;SDS011;10591;52.532;13.348;2022-11-20T01:41:51;15.77;;;10.47;;
20861;SDS011;10591;52.532;13.348;2022-11-20T01:44:48;15.47;;;10.43;;
20861;SDS011;10591;52.532;13.348;2022-11-20T01:47:36;17.43;;;11.40;;
20861;SDS011;10591;52.532;13.348;2022-11-20T01:50:22;13.70;;;10.60;;
20861;SDS011;10591;52.532;13.348;2022-11-20T01:52:57;15.63;;;10.50;;
20861;SDS011;10591;52.532;13.348;2022-11-20T01:55:32;14.83;;;10.20;;
20861;SDS011;10591;52.532;13.348;2022-11-20T01:58:06;16.83;;;10.53;;
20861;SDS011;10591;52.532;13.348;2022-11-20T02:00:38;18.07;;;11.20;;
20861;SDS011;10591;52.532;13.348;2022-11-20T02:03:15;17.37;;;10.73;;
20861;SDS011;10591;52.532;13.348;2022-11-20T02:05:50;16.53;;;10.50;;
20861;SDS011;10591;52.532;13.348;2022-11-20T02:08:29;17.47;;;11.23;;
20861;SDS011;10591;52.532;13.348;2022-11-20T02:11:01;18.07;;;11.80;;
20861;SDS011;10591;52.532;13.348;2022-11-20T02:13:31;17.10;;;11.27;;
20861;SDS011;10591;52.532;13.348;2022-11-20T02:16:13;16.27;;;11.10;;
20861;SDS011;10591;52.532;13.348;2022-11-20T02:18:51;17.10;;;10.90;;
20861;SDS011;10591;52.532;13.348;2022-11-20T02:21:45;16.43;;;10.93;;
20861;SDS011;10591;52.532;13.348;2022-11-20T02:24:21;17.40;;;11.53;;
20861;SDS011;10591;52.532;13.348;2022-11-20T02:26:53;17.90;;;11.53;;
20861;SDS011;10591;52.532;13.348;2022-11-20T02:29:32;17.27;;;10.77;;
20861;SDS011;10591;52.532;13.348;2022-11-20T02:32:05;15.80;;;11.23;;
20861;SDS011;10591;52.532;13.348;2022-11-20T02:34:38;17.17;;;11.40;;
20861;SDS011;10591;52.532;13.348;2022-11-20T02:37:10;16.77;;;11.50;;
20861;SDS011;10591;52.532;13.348;2022-11-20T02:39:44;18.87;;;12.50;;
20861;SDS011;10591;52.532;13.348;2022-11-20T02:42:15;19.93;;;11.93;;
20861;SDS011;10591;52.532;13.348;2022-11-20T02:44:47;16.40;;;11.67;;
20861;SDS011;10591;52.532;13.348;2022-11-20T02:47:17;18.17;;;11.80;;
20861;SDS011;10591;52.532;13.348;2022-11-20T02:49:48;16.27;;;11.03;;
20861;SDS011;10591;52.532;13.348;2022-11-20T02:52:19;19.50;;;12.73;;
20861;SDS011;10591;52.532;13.348;2022-11-20T02:54:51;18.07;;;11.73;;
20861;SDS011;10591;52.532;13.348;2022-11-20T02:57:22;18.93;;;11.73;;
20861;SDS011;10591;52.532;13.348;2022-11-20T02:59:53;18.30;;;12.63;;
20861;SDS011;10591;52.532;13.348;2022-11-20T03:02:29;17.83;;;11.83;;
20861;SDS011;10591;52.532;13.348;2022-11-20T03:05:01;19.20;;;11.80;;
20861;SDS011;10591;52.532;13.348;2022-11-20T03:07:31;17.23;;;12.13;;
20861;SDS011;10591;52.532;13.348;2022-11-20T03:10:06;17.10;;;11.33;;
20861;SDS011;10591;52.532;13.348;2022-11-20T03:12:36;18.70;;;12.57;;
20861;SDS011;10591;52.532;13.348;2022-11-20T03:15:10;16.93;;;11.80;;
20861;SDS011;10591;52.532;13.348;2022-11-20T03:17:41;18.13;;;12.57;;
20861;SDS011;10591;52.532;13.348;2022-11-20T03:20:13;17.77;;;11.83;;
20861;SDS011;10591;52.532;13.348;2022-11-20T03:22:44;16.43;;;12.33;;
20861;SDS011;10591;52.532;13.348;2022-11-20T03:25:14;17.60;;;12.17;;
20861;SDS011;10591;52.532;13.348;2022-11-20T03:27:45;18.50;;;12.83;;
20861;SDS011;10591;52.532;13.348;2022-11-20T03:30:19;21.07;;;13.27;;
20861;SDS011;10591;52.532;13.348;2022-11-20T03:32:52;17.90;;;12.37;;
20861;SDS011;10591;52.532;13.348;2022-11-20T03:35:23;18.57;;;13.07;;
20861;SDS011;10591;52.532;13.348;2022-11-20T03:37:55;19.40;;;12.80;;
20861;SDS011;10591;52.532;13.348;2022-11-20T03:40:27;20.70;;;12.67;;
20861;SDS011;10591;52.532;13.348;2022-11-20T03:42:58;19.40;;;12.50;;
20861;SDS011;10591;52.532;13.348;2022-11-20T03:45:28;19.00;;;12.43;;
20861;SDS011;10591;52.532;13.348;2022-11-20T03:47:59;19.03;;;12.07;;
20861;SDS011;10591;52.532;13.348;2022-11-20T03:50:30;20.40;;;12.27;;
20861;SDS011;10591;52.532;13.348;2022-11-20T03:53:02;18.10;;;12.13;;
20861;SDS011;10591;52.532;13.348;2022-11-20T03:55:32;18.37;;;12.60;;
20861;SDS011;10591;52.532;13.348;2022-11-20T03:58:04;19.83;;;13.00;;
20861;SDS011;10591;52.532;13.348;2022-11-20T04:00:37;20.43;;;12.97;;
20861;SDS011;10591;52.532;13.348;2022-11-20T04:03:07;20.10;;;12.47;;
20861;SDS011;10591;52.532;13.348;2022-11-20T04:05:38;18.60;;;12.00;;
20861;SDS011;10591;52.532;13.348;2022-11-20T04:08:09;19.73;;;12.33;;
20861;SDS011;10591;52.532;13.348;2022-11-20T04:10:40;19.10;;;12.30;;
20861;SDS011;10591;52.532;13.348;2022-11-20T04:13:10;19.43;;;12.37;;
20861;SDS011;10591;52.532;13.348;2022-11-20T04:15:41;19.57;;;13.27;;
20861;SDS011;10591;52.532;13.348;2022-11-20T04:18:12;18.97;;;12.70;;
20861;SDS011;10591;52.532;13.348;2022-11-20T04:20:43;18.57;;;12.17;;
20861;SDS011;10591;52.532;13.348;2022-11-20T04:23:14;18.87;;;12.53;;
20861;SDS011;10591;52.532;13.348;2022-11-20T04:25:45;19.77;;;11.90;;
20861;SDS011;10591;52.532;13.348;2022-11-20T04:28:15;19.27;;;11.80;;
20861;SDS011;10591;52.532;13.348;2022-11-20T04:30:46;19.17;;;12.50;;
20861;SDS011;10591;52.532;13.348;2022-11-20T04:33:17;18.13;;;12.40;;
20861;SDS011;10591;52.532;13.348;2022-11-20T04:35:48;20.73;;;13.17;;
20861;SDS011;10591;52.532;13.348;2022-11-20T04:38:21;17.43;;;12.47;;
20861;SDS011;10591;52.532;13.348;2022-11-20T04:40:55;19.30;;;12.93;;
20861;SDS011;10591;52.532;13.348;2022-11-20T04:43:28;18.53;;;12.77;;
20861;SDS011;10591;52.532;13.348;2022-11-20T04:46:01;18.30;;;12.80;;
20861;SDS011;10591;52.532;13.348;2022-11-20T04:48:34;19.13;;;12.43;;
20861;SDS011;10591;52.532;13.348;2022-11-20T04:51:07;19.77;;;12.83;;
20861;SDS011;10591;52.532;13.348;2022-11-20T04:53:38;20.80;;;13.27;;
20861;SDS011;10591;52.532;13.348;2022-11-20T04:56:11;21.23;;;13.20;;
20861;SDS011;10591;52.532;13.348;2022-11-20T04:58:45;20.47;;;12.43;;
20861;SDS011;10591;52.532;13.348;2022-11-20T05:01:20;21.47;;;13.30;;
20861;SDS011;10591;52.532;13.348;2022-11-20T05:03:52;21.37;;;12.80;;
20861;SDS011;10591;52.532;13.348;2022-11-20T05:06:22;18.23;;;12.63;;
20861;SDS011;10591;52.532;13.348;2022-11-20T05:08:56;19.70;;;12.90;;
20861;SDS011;10591;52.532;13.348;2022-11-20T05:11:27;18.80;;;12.17;;
20861;SDS011;10591;52.532;13.348;2022-11-20T05:13:59;17.33;;;12.00;;
20861;SDS011;10591;52.532;13.348;2022-11-20T05:16:38;19.80;;;12.40;;
20861;SDS011;10591;52.532;13.348;2022-11-20T05:19:09;19.07;;;12.43;;
20861;SDS011;10591;52.532;13.348;2022-11-20T05:21:40;20.80;;;13.23;;
20861;SDS011;10591;52.532;13.348;2022-11-20T05:24:11;18.37;;;12.73;;
20861;SDS011;10591;52.532;13.348;2022-11-20T05:26:42;20.13;;;12.77;;
20861;SDS011;10591;52.532;13.348;2022-11-20T05:29:13;19.23;;;12.97;;
20861;SDS011;10591;52.532;13.348;2022-11-20T05:31:45;20.17;;;12.53;;
20861;SDS011;10591;52.532;13.348;2022-11-20T05:34:15;19.97;;;12.77;;
20861;SDS011;10591;52.532;13.348;2022-11-20T05:36:47;19.80;;;13.10;;
20861;SDS011;10591;52.532;13.348;2022-11-20T05:39:18;20.30;;;13.00;;
20861;SDS011;10591;52.532;13.348;2022-11-20T05:41:50;20.23;;;13.17;;
20861;SDS011;10591;52.532;13.348;2022-11-20T05:44:22;17.90;;;11.80;;
20861;SDS011;10591;52.532;13.348;2022-11-20T05:46:53;20.00;;;12.93;;
20861;SDS011;10591;52.532;13.348;2022-11-20T05:49:24;21.23;;;13.43;;
20861;SDS011;10591;52.532;13.348;2022-11-20T05:51:57;19.47;;;13.23;;
20861;SDS011;10591;52.532;13.348;2022-11-20T05:54:28;21.23;;;12.63;;
20861;SDS011;10591;52.532;13.348;2022-11-20T05:56:59;18.67;;;12.77;;
20861;SDS011;10591;52.532;13.348;2022-11-20T05:59:33;16.57;;;11.70;;
20861;SDS011;10591;52.532;13.348;2022-11-20T06:02:04;19.27;;;11.90;;
20861;SDS011;10591;52.532;13.348;2022-11-20T06:04:35;18.00;;;12.30;;
20861;SDS011;10591;52.532;13.348;2022-11-20T06:07:08;19.70;;;12.03;;
20861;SDS011;10591;52.532;13.348;2022-11-20T06:09:43;18.30;;;12.17;;
20861;SDS011;10591;52.532;13.348;2022-11-20T06:12:14;17.37;;;11.30;;
20861;SDS011;10591;52.532;13.348;2022-11-20T06:14:48;16.83;;;11.13;;
20861;SDS011;10591;52.532;13.348;2022-11-20T06:17:19;18.33;;;11.87;;
20861;SDS011;10591;52.532;13.348;2022-11-20T06:19:52;18.07;;;11.50;;
20861;SDS011;10591;52.532;13.348;2022-11-20T06:22:24;19.17;;;11.73;;
20861;SDS011;10591;52.532;13.348;2022-11-20T06:25:01;17.20;;;11.93;;
20861;SDS011;10591;52.532;13.348;2022-11-20T06:27:34;15.90;;;11.60;;
20861;SDS011;10591;52.532;13.348;2022-11-20T06:30:10;18.93;;;11.63;;
20861;SDS011;10591;52.532;13.348;2022-11-20T06:32:43;18.30;;;11.93;;
20861;SDS011;10591;52.532;13.348;2022-11-20T06:35:14;19.73;;;12.47;;
20861;SDS011;10591;52.532;13.348;2022-11-20T06:37:44;18.20;;;12.47;;
20861;SDS011;10591;52.532;13.348;2022-11-20T06:40:15;19.60;;;12.63;;
20861;SDS011;10591;52.532;13.348;2022-11-20T06:42:46;21.70;;;12.97;;
20861;SDS011;10591;52.532;13.348;2022-11-20T06:45:16;18.63;;;11.70;;
20861;SDS011;10591;52.532;13.348;2022-11-20T06:47:47;17.20;;;12.37;;
20861;SDS011;10591;52.532;13.348;2022-11-20T06:50:17;19.40;;;12.70;;
20861;SDS011;10591;52.532;13.348;2022-11-20T06:52:49;19.13;;;13.43;;
20861;SDS011;10591;52.532;13.348;2022-11-20T06:55:20;18.60;;;11.97;;
20861;SDS011;10591;52.532;13.348;2022-11-20T06:57:52;20.70;;;12.87;;
20861;SDS011;10591;52.532;13.348;2022-11-20T07:00:23;20.33;;;12.93;;
20861;SDS011;10591;52.532;13.348;2022-11-20T07:02:56;19.80;;;13.07;;
20861;SDS011;10591;52.532;13.348;2022-11-20T07:05:29;19.83;;;13.10;;
20861;SDS011;10591;52.532;13.348;2022-11-20T07:08:01;19.80;;;13.20;;
20861;SDS011;10591;52.532;13.348;2022-11-20T07:10:36;18.33;;;11.90;;
20861;SDS011;10591;52.532;13.348;2022-11-20T07:13:11;21.97;;;13.23;;
20861;SDS011;10591;52.532;13.348;2022-11-20T07:15:41;19.10;;;12.70;;
20861;SDS011;10591;52.532;13.348;2022-11-20T07:18:12;18.97;;;13.30;;
20861;SDS011;10591;52.532;13.348;2022-11-20T07:20:45;20.47;;;12.77;;
20861;SDS011;10591;52.532;13.348;2022-11-20T07:23:16;19.17;;;13.47;;
20861;SDS011;10591;52.532;13.348;2022-11-20T07:25:48;20.20;;;13.13;;
20861;SDS011;10591;52.532;13.348;2022-11-20T07:28:22;19.77;;;13.60;;
20861;SDS011;10591;52.532;13.348;2022-11-20T07:30:53;21.93;;;13.60;;
20861;SDS011;10591;52.532;13.348;2022-11-20T07:33:24;17.67;;;12.60;;
20861;SDS011;10591;52.532;13.348;2022-11-20T07:35:55;20.90;;;12.87;;
20861;SDS011;10591;52.532;13.348;2022-11-20T07:38:28;19.50;;;13.53;;
20861;SDS011;10591;52.532;13.348;2022-11-20T07:40:59;20.97;;;13.03;;
20861;SDS011;10591;52.532;13.348;2022-11-20T07:43:32;20.57;;;13.57;;
20861;SDS011;10591;52.532;13.348;2022-11-20T07:46:04;19.43;;;13.20;;
20861;SDS011;10591;52.532;13.348;2022-11-20T07:48:36;21.63;;;13.80;;
20861;SDS011;10591;52.532;13.348;2022-11-20T07:51:08;20.23;;;13.30;;
20861;SDS011;10591;52.532;13.348;2022-11-20T07:53:39;20.30;;;13.10;;
20861;SDS011;10591;52.532;13.348;2022-11-20T07:56:10;19.07;;;12.97;;
20861;SDS011;10591;52.532;13.348;2022-11-20T07:58:42;20.07;;;13.27;;
20861;SDS011;10591;52.532;13.348;2022-11-20T08:01:14;18.97;;;13.43;;
20861;SDS011;10591;52.532;13.348;2022-11-20T08:03:47;19.07;;;12.27;;
20861;SDS011;10591;52.532;13.348;2022-11-20T08:06:17;18.70;;;12.60;;
20861;SDS011;10591;52.532;13.348;2022-11-20T08:08:51;18.60;;;13.00;;
20861;SDS011;10591;52.532;13.348;2022-11-20T08:11:21;19.40;;;12.63;;
20861;SDS011;10591;52.532;13.348;2022-11-20T08:14:10;19.97;;;13.03;;
20861;SDS011;10591;52.532;13.348;2022-11-20T08:16:45;22.87;;;13.27;;
20861;SDS011;10591;52.532;13.348;2022-11-20T08:19:17;20.90;;;12.70;;
20861;SDS011;10591;52.532;13.348;2022-11-20T08:21:50;21.77;;;14.10;;
20861;SDS011;10591;52.532;13.348;2022-11-20T08:24:29;19.83;;;13.27;;
20861;SDS011;10591;52.532;13.348;2022-11-20T08:27:01;21.20;;;12.47;;
20861;SDS011;10591;52.532;13.348;2022-11-20T08:29:33;19.87;;;13.33;;
20861;SDS011;10591;52.532;13.348;2022-11-20T08:32:05;19.83;;;13.17;;
20861;SDS011;10591;52.532;13.348;2022-11-20T08:34:36;19.80;;;13.73;;
20861;SDS011;10591;52.532;13.348;2022-11-20T08:37:09;21.27;;;13.60;;
20861;SDS011;10591;52.532;13.348;2022-11-20T08:39:45;20.23;;;14.00;;
20861;SDS011;10591;52.532;13.348;2022-11-20T08:42:17;19.33;;;13.33;;
20861;SDS011;10591;52.532;13.348;2022-11-20T08:44:49;19.43;;;13.20;;
20861;SDS011;10591;52.532;13.348;2022-11-20T08:47:25;22.70;;;13.73;;
20861;SDS011;10591;52.532;13.348;2022-11-20T08:49:56;22.27;;;13.83;;
20861;SDS011;10591;52.532;13.348;2022-11-20T08:52:28;19.67;;;13.20;;
20861;SDS011;10591;52.532;13.348;2022-11-20T08:55:02;17.33;;;12.70;;
20861;SDS011;10591;52.532;13.348;2022-11-20T08:57:36;20.87;;;13.67;;
20861;SDS011;10591;52.532;13.348;2022-11-20T09:00:09;20.63;;;13.13;;
20861;SDS011;10591;52.532;13.348;2022-11-20T09:02:42;22.20;;;14.17;;
20861;SDS011;10591;52.532;13.348;2022-11-20T09:05:12;20.03;;;13.53;;
20861;SDS011;10591;52.532;13.348;2022-11-20T09:07:44;21.43;;;13.73;;
20861;SDS011;10591;52.532;13.348;2022-11-20T09:10:16;21.47;;;13.33;;
20861;SDS011;10591;52.532;13.348;2022-11-20T09:12:51;21.00;;;13.13;;
20861;SDS011;10591;52.532;13.348;2022-11-20T09:15:25;20.10;;;13.30;;
20861;SDS011;10591;52.532;13.348;2022-11-20T09:17:58;20.87;;;12.50;;
20861;SDS011;10591;52.532;13.348;2022-11-20T09:20:31;20.80;;;13.63;;
20861;SDS011;10591;52.532;13.348;2022-11-20T09:23:02;19.27;;;13.17;;
20861;SDS011;10591;52.532;13.348;2022-11-20T09:25:35;20.83;;;13.40;;
20861;SDS011;10591;52.532;13.348;2022-11-20T09:28:07;19.30;;;14.00;;
20861;SDS011;10591;52.532;13.348;2022-11-20T09:30:38;21.10;;;14.03;;
20861;SDS011;10591;52.532;13.348;2022-11-20T09:33:12;23.50;;;14.53;;
20861;SDS011;10591;52.532;13.348;2022-11-20T09:35:49;20.33;;;13.60;;
20861;SDS011;10591;52.532;13.348;2022-11-20T09:38:20;22.03;;;14.20;;
20861;SDS011;10591;52.532;13.348;2022-11-20T09:40:57;20.17;;;13.93;;
20861;SDS011;10591;52.532;13.348;2022-11-20T09:46:40;17.70;;;12.30;;
20861;SDS011;10591;52.532;13.348;2022-11-20T09:54:55;19.10;;;12.87;;
20861;SDS011;10591;52.532;13.348;2022-11-20T09:57:34;19.73;;;13.33;;
20861;SDS011;10591;52.532;13.348;2022-11-20T10:00:08;20.87;;;12.83;;
20861;SDS011;10591;52.532;13.348;2022-11-20T10:05:35;20.33;;;13.60;;
20861;SDS011;10591;52.532;13.348;2022-11-20T10:08:19;19.70;;;13.17;;
20861;SDS011;10591;52.532;13.348;2022-11-20T10:10:54;20.83;;;12.97;;
20861;SDS011;10591;52.532;13.348;2022-11-20T10:16:16;18.03;;;13.20;;
20861;SDS011;10591;52.532;13.348;2022-11-20T10:19:26;17.80;;;12.80;;
20861;SDS011;10591;52.532;13.348;2022-11-20T10:22:14;17.80;;;12.33;;
20861;SDS011;10591;52.532;13.348;2022-11-20T10:27:48;18.47;;;12.83;;
20861;SDS011;10591;52.532;13.348;2022-11-20T10:30:26;17.63;;;11.93;;
20861;SDS011;10591;52.532;13.348;2022-11-20T10:33:00;17.53;;;12.13;;
20861;SDS011;10591;52.532;13.348;2022-11-20T10:35:35;16.40;;;12.17;;
20861;SDS011;10591;52.532;13.348;2022-11-20T10:38:30;21.60;;;12.93;;
20861;SDS011;10591;52.532;13.348;2022-11-20T10:41:06;18.73;;;12.53;;
20861;SDS011;10591;52.532;13.348;2022-11-20T10:44:03;18.97;;;12.87;;
20861;SDS011;10591;52.532;13.348;2022-11-20T10:46:44;18.93;;;12.47;;
20861;SDS011;10591;52.532;13.348;2022-11-20T10:49:19;18.20;;;12.90;;
20861;SDS011;10591;52.532;13.348;2022-11-20T10:52:01;17.37;;;12.10;;
20861;SDS011;10591;52.532;13.348;2022-11-20T10:57:31;18.60;;;13.07;;
20861;SDS011;10591;52.532;13.348;2022-11-20T11:00:16;15.87;;;11.93;;
20861;SDS011;10591;52.532;13.348;2022-11-20T11:02:48;16.13;;;12.10;;
20861;SDS011;10591;52.532;13.348;2022-11-20T11:08:03;14.50;;;11.40;;
20861;SDS011;10591;52.532;13.348;2022-11-20T11:10:43;16.30;;;11.63;;
20861;SDS011;10591;52.532;13.348;2022-11-20T11:13:20;17.10;;;12.13;;
20861;SDS011;10591;52.532;13.348;2022-11-20T11:15:53;16.23;;;11.47;;
20861;SDS011;10591;52.532;13.348;2022-11-20T11:18:25;17.60;;;11.37;;
20861;SDS011;10591;52.532;13.348;2022-11-20T11:21:02;17.80;;;11.53;;
20861;SDS011;10591;52.532;13.348;2022-11-20T11:23:41;17.13;;;11.17;;
20861;SDS011;10591;52.532;13.348;2022-11-20T11:26:20;16.47;;;11.93;;
20861;SDS011;10591;52.532;13.348;2022-11-20T11:28:57;17.77;;;12.37;;
20861;SDS011;10591;52.532;13.348;2022-11-20T11:31:34;15.37;;;10.97;;
20861;SDS011;10591;52.532;13.348;2022-11-20T11:34:15;14.13;;;10.37;;
20861;SDS011;10591;52.532;13.348;2022-11-20T11:36:56;14.17;;;11.03;;
20861;SDS011;10591;52.532;13.348;2022-11-20T11:39:29;15.63;;;10.30;;
20861;SDS011;10591;52.532;13.348;2022-11-20T11:42:03;14.87;;;9.70;;
20861;SDS011;10591;52.532;13.348;2022-11-20T11:44:33;15.20;;;10.00;;
20861;SDS011;10591;52.532;13.348;2022-11-20T11:47:23;13.77;;;9.70;;
20861;SDS011;10591;52.532;13.348;2022-11-20T11:50:02;14.60;;;9.90;;
20861;SDS011;10591;52.532;13.348;2022-11-20T11:53:03;14.83;;;10.70;;
20861;SDS011;10591;52.532;13.348;2022-11-20T11:55:40;14.67;;;9.80;;
20861;SDS011;10591;52.532;13.348;2022-11-20T11:58:20;14.03;;;10.33;;
20861;SDS011;10591;52.532;13.348;2022-11-20T12:00:58;15.03;;;10.13;;
20861;SDS011;10591;52.532;13.348;2022-11-20T12:03:29;13.40;;;9.83;;
20861;SDS011;10591;52.532;13.348;2022-11-20T12:06:15;15.80;;;11.40;;
20861;SDS011;10591;52.532;13.348;2022-11-20T12:08:49;15.53;;;10.43;;
20861;SDS011;10591;52.532;13.348;2022-11-20T12:16:54;14.43;;;9.90;;
20861;SDS011;10591;52.532;13.348;2022-11-20T12:19:31;13.23;;;9.60;;
20861;SDS011;10591;52.532;13.348;2022-11-20T12:22:27;13.30;;;9.33;;
20861;SDS011;10591;52.532;13.348;2022-11-20T12:25:10;13.73;;;9.67;;
20861;SDS011;10591;52.532;13.348;2022-11-20T12:30:49;13.73;;;9.20;;
20861;SDS011;10591;52.532;13.348;2022-11-20T12:33:36;15.17;;;9.60;;
20861;SDS011;10591;52.532;13.348;2022-11-20T12:39:02;11.23;;;8.90;;
20861;SDS011;10591;52.532;13.348;2022-11-20T12:41:54;14.77;;;9.63;;
20861;SDS011;10591;52.532;13.348;2022-11-20T12:47:49;12.57;;;8.87;;
20861;SDS011;10591;52.532;13.348;2022-11-20T12:53:39;10.67;;;8.03;;
20861;SDS011;10591;52.532;13.348;2022-11-20T12:56:30;10.80;;;7.80;;
20861;SDS011;10591;52.532;13.348;2022-11-20T13:02:28;10.57;;;8.10;;
20861;SDS011;10591;52.532;13.348;2022-11-20T13:08:25;12.30;;;8.67;;
20861;SDS011;10591;52.532;13.348;2022-11-20T13:11:14;10.93;;;7.73;;
20861;SDS011;10591;52.532;13.348;2022-11-20T13:14:04;11.97;;;8.40;;
20861;SDS011;10591;52.532;13.348;2022-11-20T13:19:33;12.37;;;8.13;;
20861;SDS011;10591;52.532;13.348;2022-11-20T13:22:04;15.57;;;9.87;;
20861;SDS011;10591;52.532;13.348;2022-11-20T13:24:35;13.07;;;9.17;;
20861;SDS011;10591;52.532;13.348;2022-11-20T13:30:10;11.07;;;8.30;;
20861;SDS011;10591;52.532;13.348;2022-11-20T13:32:47;12.77;;;8.83;;
20861;SDS011;10591;52.532;13.348;2022-11-20T13:35:12;12.60;;;8.77;;
20861;SDS011;10591;52.532;13.348;2022-11-20T13:37:45;12.87;;;9.57;;
20861;SDS011;10591;52.532;13.348;2022-11-20T13:40:20;11.63;;;8.73;;
20861;SDS011;10591;52.532;13.348;2022-11-20T13:45:30;11.30;;;8.53;;
20861;SDS011;10591;52.532;13.348;2022-11-20T13:48:04;13.20;;;9.23;;
20861;SDS011;10591;52.532;13.348;2022-11-20T13:50:46;12.33;;;8.93;;
20861;SDS011;10591;52.532;13.348;2022-11-20T13:59:10;11.20;;;8.10;;
20861;SDS011;10591;52.532;13.348;2022-11-20T14:01:46;12.27;;;8.10;;
20861;SDS011;10591;52.532;13.348;2022-11-20T14:04:20;12.13;;;7.83;;
20861;SDS011;10591;52.532;13.348;2022-11-20T14:06:53;13.77;;;8.70;;
20861;SDS011;10591;52.532;13.348;2022-11-20T14:09:25;11.77;;;8.03;;
20861;SDS011;10591;52.532;13.348;2022-11-20T14:12:03;12.63;;;8.60;;
20861;SDS011;10591;52.532;13.348;2022-11-20T14:14:37;13.20;;;8.90;;
20861;SDS011;10591;52.532;13.348;2022-11-20T14:17:19;13.33;;;9.00;;
20861;SDS011;10591;52.532;13.348;2022-11-20T14:19:58;12.07;;;8.40;;
20861;SDS011;10591;52.532;13.348;2022-11-20T14:22:31;10.80;;;8.37;;
20861;SDS011;10591;52.532;13.348;2022-11-20T14:27:55;13.90;;;8.87;;
20861;SDS011;10591;52.532;13.348;2022-11-20T14:30:53;14.43;;;9.10;;
20861;SDS011;10591;52.532;13.348;2022-11-20T14:33:09;13.37;;;8.57;;
20861;SDS011;10591;52.532;13.348;2022-11-20T14:35:44;12.70;;;8.47;;
20861;SDS011;10591;52.532;13.348;2022-11-20T14:38:15;15.00;;;8.87;;
20861;SDS011;10591;52.532;13.348;2022-11-20T14:40:48;13.67;;;9.03;;
20861;SDS011;10591;52.532;13.348;2022-11-20T14:43:26;12.90;;;8.10;;
20861;SDS011;10591;52.532;13.348;2022-11-20T14:45:59;12.90;;;9.07;;
20861;SDS011;10591;52.532;13.348;2022-11-20T14:48:41;13.53;;;9.53;;
20861;SDS011;10591;52.532;13.348;2022-11-20T14:51:34;14.33;;;9.53;;
20861;SDS011;10591;52.532;13.348;2022-11-20T14:54:09;12.93;;;9.17;;
20861;SDS011;10591;52.532;13.348;2022-11-20T14:56:55;15.57;;;10.07;;
20861;SDS011;10591;52.532;13.348;2022-11-20T14:59:29;14.23;;;9.37;;
20861;SDS011;10591;52.532;13.348;2022-11-20T15:02:02;12.07;;;8.53;;
20861;SDS011;10591;52.532;13.348;2022-11-20T15:04:56;13.87;;;9.90;;
20861;SDS011;10591;52.532;13.348;2022-11-20T15:07:32;12.87;;;9.23;;
20861;SDS011;10591;52.532;13.348;2022-11-20T15:10:22;14.97;;;9.60;;
20861;SDS011;10591;52.532;13.348;2022-11-20T15:13:05;14.23;;;9.57;;
20861;SDS011;10591;52.532;13.348;2022-11-20T15:15:52;14.30;;;9.97;;
20861;SDS011;10591;52.532;13.348;2022-11-20T15:18:28;13.33;;;9.20;;
20861;SDS011;10591;52.532;13.348;2022-11-20T15:21:18;13.87;;;9.70;;
20861;SDS011;10591;52.532;13.348;2022-11-20T15:23:49;13.43;;;9.03;;
20861;SDS011;10591;52.532;13.348;2022-11-20T15:26:24;14.57;;;9.50;;
20861;SDS011;10591;52.532;13.348;2022-11-20T15:28:59;12.43;;;8.47;;
20861;SDS011;10591;52.532;13.348;2022-11-20T15:31:31;15.50;;;9.63;;
20861;SDS011;10591;52.532;13.348;2022-11-20T15:34:05;11.80;;;8.60;;
20861;SDS011;10591;52.532;13.348;2022-11-20T15:36:39;13.00;;;9.53;;
20861;SDS011;10591;52.532;13.348;2022-11-20T15:39:10;12.10;;;9.47;;
20861;SDS011;10591;52.532;13.348;2022-11-20T15:41:43;14.03;;;10.47;;
20861;SDS011;10591;52.532;13.348;2022-11-20T15:44:13;14.40;;;10.27;;
20861;SDS011;10591;52.532;13.348;2022-11-20T15:46:45;13.07;;;9.50;;
20861;SDS011;10591;52.532;13.348;2022-11-20T15:49:16;16.23;;;10.53;;
20861;SDS011;10591;52.532;13.348;2022-11-20T15:51:52;16.67;;;9.40;;
20861;SDS011;10591;52.532;13.348;2022-11-20T15:54:22;15.77;;;10.40;;
20861;SDS011;10591;52.532;13.348;2022-11-20T15:56:54;16.73;;;9.87;;
20861;SDS011;10591;52.532;13.348;2022-11-20T15:59:26;14.50;;;9.33;;